Terminal Aerodrome Forecast
Issued by NWS

Home | Current Version | Previous Version | Text Only | Print | Product List | Glossary On
Versions: 1 2 3 4 5 6 7 8 9 10 11 12 13 14 15 16 17 18 19 20 21 22 23 24 25 26 27 28
506
FTUS44 KFWD 141139
TAFFTW
TAF
KFTW 141139Z 1412/1512 18015G25KT P6SM OVC015
     FM141500 19017KT P6SM BKN025
     FM141900 18015KT P6SM SCT040
     FM150200 15010KT P6SM BKN050
     FM150600 25012KT P6SM BKN020
     FM151000 30012KT P6SM OVC015=

USA.gov is the U.S. government's official web portal to all federal, state and local government web resources and services.